createdAt,value
2018-07-13T00:02:36.623Z,99.90
2018-07-13T00:06:09.977Z,99.90
2018-07-13T00:12:09.155Z,99.90
2018-07-13T00:15:59.749Z,99.90
2018-07-13T00:18:45.233Z,99.90
2018-07-13T00:21:47.664Z,99.90
2018-07-13T00:24:33.919Z,99.90
2018-07-13T00:27:50.945Z,99.90
2018-07-13T00:30:32.021Z,99.90
2018-07-13T00:33:47.348Z,99.90
2018-07-13T00:36:36.238Z,99.90
2018-07-13T00:39:37.800Z,99.90
2018-07-13T00:42:05.799Z,99.90
2018-07-13T00:45:38.411Z,99.90
2018-07-13T00:48:06.244Z,99.90
2018-07-13T00:50:46.684Z,99.90
2018-07-13T00:53:45.975Z,99.90
2018-07-13T00:56:21.806Z,99.90
2018-07-13T00:59:20.967Z,99.90
2018-07-13T01:01:48.783Z,99.90
2018-07-13T01:04:25.550Z,99.90
2018-07-13T01:07:06.999Z,99.90
2018-07-13T01:09:58.030Z,99.90
2018-07-13T01:12:40.817Z,99.90
2018-07-13T01:15:29.110Z,99.90
2018-07-13T01:18:30.666Z,99.90
2018-07-13T01:21:15.715Z,99.90
2018-07-13T01:23:54.679Z,99.90
2018-07-13T01:29:36.884Z,99.90
2018-07-13T01:32:15.415Z,99.90
2018-07-13T01:38:05.847Z,99.90
2018-07-13T01:40:42.017Z,99.90
2018-07-13T01:43:27.331Z,99.90
2018-07-13T01:45:58.968Z,99.90
2018-07-13T01:48:28.722Z,99.90
2018-07-13T01:51:04.277Z,99.90
2018-07-13T01:53:32.418Z,99.90
2018-07-13T01:56:03.515Z,99.90
2018-07-13T01:58:37.939Z,99.90
2018-07-13T02:01:05.962Z,99.90
2018-07-13T02:03:34.414Z,99.90
2018-07-13T02:06:02.410Z,99.90
2018-07-13T02:08:30.047Z,99.90
2018-07-13T02:10:58.016Z,99.90
2018-07-13T02:13:26.818Z,99.90
2018-07-13T02:15:55.896Z,99.90
2018-07-13T02:18:29.580Z,99.90
2018-07-13T02:20:57.356Z,99.90
2018-07-13T02:23:26.034Z,99.90
2018-07-13T02:25:53.920Z,99.90
2018-07-13T02:28:21.575Z,99.90
2018-07-13T02:30:49.072Z,99.90
2018-07-13T02:33:16.721Z,99.90
2018-07-13T02:35:55.123Z,99.90
2018-07-13T02:38:23.294Z,99.90
2018-07-13T02:40:57.782Z,99.90
2018-07-13T02:43:26.391Z,99.90
2018-07-13T02:45:53.847Z,99.90
2018-07-13T02:48:21.293Z,99.90
2018-07-13T02:50:48.726Z,99.90
2018-07-13T02:53:16.146Z,99.90
2018-07-13T02:55:43.573Z,99.90
2018-07-13T02:58:11.120Z,99.90
2018-07-13T03:00:38.574Z,99.90
2018-07-13T03:03:06.103Z,99.90
2018-07-13T03:05:33.533Z,99.90
2018-07-13T03:08:00.951Z,99.90
2018-07-13T03:10:28.518Z,99.90
2018-07-13T03:12:56.162Z,99.90
2018-07-13T03:15:25.728Z,99.90
2018-07-13T03:18:24.444Z,99.90
2018-07-13T03:20:55.130Z,99.90
2018-07-13T03:23:34.975Z,99.90
2018-07-13T03:29:28.135Z,99.90
2018-07-13T03:32:19.953Z,99.90
2018-07-13T03:52:35.022Z,99.90
2018-07-13T03:55:12.951Z,99.90
2018-07-13T03:57:43.583Z,99.90
2018-07-13T04:06:00.283Z,99.90
2018-07-13T04:27:33.105Z,99.90
2018-07-13T04:36:18.429Z,99.90
2018-07-13T11:44:14.149Z,67.20
2018-07-13T13:16:10.163Z,78.10
2018-07-13T13:26:55.989Z,80.30
2018-07-13T13:48:44.167Z,82.40
2018-07-13T14:41:52.259Z,87.70
2018-07-13T15:33:41.906Z,76.70
2018-07-13T16:25:46.812Z,75.10
2018-07-13T16:28:17.191Z,75.40
2018-07-13T16:30:48.626Z,76.20
2018-07-13T17:18:15.398Z,76.30
2018-07-13T18:31:50.533Z,72.30
2018-07-13T19:45:07.672Z,93.70
2018-07-13T20:03:23.647Z,95.70
2018-07-13T21:23:14.574Z,99.90
2018-07-13T21:30:22.593Z,99.90
2018-07-13T21:41:43.089Z,99.90
2018-07-13T22:03:47.564Z,99.90
2018-07-13T22:18:56.989Z,99.90
2018-07-13T22:23:22.174Z,99.90
2018-07-13T22:31:00.346Z,99.90
2018-07-13T22:48:30.598Z,99.90
2018-07-13T22:55:53.473Z,99.90
2018-07-13T23:19:12.939Z,99.90
2018-07-13T23:44:46.037Z,99.90
